Time;durP1;ratioP1;P1;durP2;ratioP2;P2;SDS_P1;SDS_P2;PMS_P1;PMS_P2;Temp;Humidity;BMP_temperature;BMP_pressure;BME280_temperature;BME280_humidity;BME280_pressure;Samples;Min_cycle;Max_cycle;Signal;HPM_P1;HPM_P2
2021/06/08 00:01:30;;;;;;;56.15;45.55;;;25.20;90.10;;;;;;5056994;28;20094;-81
2021/06/08 00:03:56;;;;;;;54.53;45.20;;;25.20;90.10;;;;;;5040155;28;20039;-82
2021/06/08 00:06:22;;;;;;;54.47;45.22;;;25.20;90.10;;;;;;5057099;28;20082;-82
2021/06/08 00:08:48;;;;;;;56.25;45.38;;;25.20;90.20;;;;;;5056803;28;20021;-82
2021/06/08 00:11:16;;;;;;;59.17;48.17;;;25.20;90.20;;;;;;5057145;28;20047;-81
2021/06/08 00:13:41;;;;;;;56.97;46.28;;;25.20;90.20;;;;;;5056935;28;20033;-82
2021/06/08 00:16:07;;;;;;;56.80;47.17;;;25.20;90.20;;;;;;5074535;28;20032;-83
2021/06/08 00:18:33;;;;;;;55.13;45.40;;;25.20;90.20;;;;;;5035889;28;20063;-82
2021/06/08 00:20:59;;;;;;;54.72;45.97;;;25.20;90.20;;;;;;5053153;28;20120;-81
2021/06/08 00:23:24;;;;;;;57.92;46.10;;;25.20;90.20;;;;;;5069735;28;20075;-81
2021/06/08 00:25:50;;;;;;;55.53;45.40;;;25.20;90.20;;;;;;5052890;28;20409;-82
2021/06/08 00:28:16;;;;;;;56.97;46.15;;;25.20;90.30;;;;;;5069784;28;20514;-82
2021/06/08 00:30:41;;;;;;;56.30;45.30;;;25.20;90.20;;;;;;5053614;28;20544;-83
2021/06/08 00:33:07;;;;;;;54.45;44.42;;;25.20;90.20;;;;;;5069484;28;20560;-83
2021/06/08 00:35:33;;;;;;;54.50;44.97;;;25.20;90.30;;;;;;5070028;28;20471;-82
2021/06/08 00:37:59;;;;;;;57.22;45.22;;;25.20;90.30;;;;;;5069309;28;20029;-83
2021/06/08 00:40:27;;;;;;;53.58;43.83;;;25.20;90.20;;;;;;5069502;28;20039;-82
2021/06/08 00:42:53;;;;;;;52.88;42.83;;;25.20;90.20;;;;;;5052785;28;20037;-83
2021/06/08 00:45:19;;;;;;;52.17;42.97;;;25.20;90.30;;;;;;5069536;28;20108;-82
2021/06/08 00:47:45;;;;;;;52.15;43.00;;;25.20;90.40;;;;;;5053013;28;20549;-82
2021/06/08 00:50:11;;;;;;;49.45;41.60;;;25.20;90.40;;;;;;5052497;28;20036;-82
2021/06/08 00:52:36;;;;;;;52.55;43.15;;;25.20;90.40;;;;;;5053881;28;20532;-82
2021/06/08 00:55:03;;;;;;;51.15;42.75;;;25.20;90.50;;;;;;5068908;28;20449;-82
2021/06/08 00:57:29;;;;;;;53.88;43.55;;;25.20;90.50;;;;;;5052700;28;20025;-82
2021/06/08 00:59:54;;;;;;;53.55;42.97;;;25.20;90.50;;;;;;5052231;28;20033;-83
2021/06/08 01:02:20;;;;;;;50.28;40.95;;;25.20;90.50;;;;;;5053867;28;20029;-82
2021/06/08 01:04:46;;;;;;;52.63;42.00;;;25.20;90.60;;;;;;5052605;28;20548;-82
2021/06/08 01:07:11;;;;;;;48.85;41.10;;;25.20;90.60;;;;;;5052116;28;20448;-82
2021/06/08 01:09:37;;;;;;;51.65;42.40;;;25.20;90.60;;;;;;5068934;28;20033;-82
2021/06/08 01:12:03;;;;;;;47.83;39.97;;;25.20;90.70;;;;;;5052161;28;20104;-82
2021/06/08 01:14:29;;;;;;;48.17;39.30;;;25.20;90.90;;;;;;5052453;28;20037;-82
2021/06/08 01:16:54;;;;;;;45.45;38.17;;;25.20;90.70;;;;;;5068829;28;20021;-83
2021/06/08 01:19:21;;;;;;;45.22;37.58;;;25.20;90.80;;;;;;5051803;28;20053;-82
2021/06/08 01:21:46;;;;;;;47.95;38.90;;;25.20;90.80;;;;;;5068912;28;20116;-82
2021/06/08 01:24:12;;;;;;;48.45;39.63;;;25.20;90.80;;;;;;5052931;28;20143;-82
2021/06/08 01:26:39;;;;;;;45.38;38.35;;;25.20;90.80;;;;;;5052162;28;20037;-82
2021/06/08 01:29:05;;;;;;;43.17;36.65;;;25.20;90.90;;;;;;5052309;28;20025;-81
2021/06/08 01:31:34;;;;;;;45.65;37.05;;;25.20;90.90;;;;;;5051698;28;20060;-81
2021/06/08 01:34:01;;;;;;;44.50;36.08;;;25.20;90.90;;;;;;5051502;28;20056;-82
2021/06/08 01:36:35;;;;;;;45.42;36.60;;;25.20;90.90;;;;;;5053192;28;20029;-82
2021/06/08 01:39:00;;;;;;;42.83;35.53;;;25.20;90.90;;;;;;5053066;28;20036;-82
2021/06/08 01:41:27;;;;;;;43.75;36.08;;;25.20;91.00;;;;;;5052041;28;20036;-82
2021/06/08 01:43:54;;;;;;;41.70;34.63;;;25.20;91.00;;;;;;5051924;28;20064;-82
2021/06/08 01:46:21;;;;;;;41.17;33.72;;;25.20;91.00;;;;;;5053117;28;20132;-81
2021/06/08 01:48:51;;;;;;;38.03;32.22;;;25.20;91.00;;;;;;5073464;28;20108;-81
2021/06/08 01:51:31;;;;;;;38.00;32.08;;;25.20;91.00;;;;;;5070350;28;20412;-82
2021/06/08 01:54:35;;;;;;;38.67;32.22;;;25.20;91.00;;;;;;5068567;28;20021;-81
2021/06/08 01:57:13;;;;;;;37.40;31.60;;;25.20;91.00;;;;;;5053026;28;20029;-82
2021/06/08 02:00:04;;;;;;;35.58;29.83;;;25.20;91.10;;;;;;5053106;28;20279;-82
2021/06/08 02:02:38;;;;;;;39.28;30.67;;;25.20;91.10;;;;;;5052942;28;20063;-81
2021/06/08 02:05:07;;;;;;;;;;;25.20;91.10;;;;;;5053011;28;20052;-82
2021/06/08 02:07:43;;;;;;;35.28;29.02;;;25.20;91.10;;;;;;5051622;28;20402;-81
2021/06/08 02:10:15;;;;;;;35.38;29.00;;;25.20;91.10;;;;;;5051257;28;20040;-82
2021/06/08 02:12:47;;;;;;;33.05;28.08;;;25.10;91.10;;;;;;5052701;28;20100;-81
2021/06/08 02:15:14;;;;;;;33.13;28.50;;;25.10;91.10;;;;;;5052237;28;20487;-82
2021/06/08 02:17:50;;;;;;;32.20;25.73;;;25.10;91.10;;;;;;5051239;28;20037;-81
2021/06/08 02:20:20;;;;;;;29.83;25.75;;;25.10;91.10;;;;;;5050736;28;20055;-81
2021/06/08 02:22:50;;;;;;;30.67;26.42;;;25.20;91.10;;;;;;5052860;28;20033;-81
2021/06/08 02:25:19;;;;;;;31.77;25.92;;;25.10;91.10;;;;;;5050999;28;20029;-81
2021/06/08 02:27:45;;;;;;;29.92;25.08;;;25.20;91.20;;;;;;5051594;28;20021;-81
2021/06/08 02:30:11;;;;;;;29.67;24.83;;;25.10;91.10;;;;;;5052050;28;20032;-82
2021/06/08 02:32:39;;;;;;;30.65;25.83;;;25.10;91.20;;;;;;5051249;28;20029;-81
2021/06/08 02:35:06;;;;;;;28.05;23.63;;;25.10;91.20;;;;;;5051005;28;20060;-82
2021/06/08 02:37:33;;;;;;;26.63;22.95;;;25.10;91.20;;;;;;5067574;28;20029;-81
2021/06/08 02:40:00;;;;;;;27.88;23.23;;;25.10;91.20;;;;;;5051926;28;20048;-81
2021/06/08 02:42:26;;;;;;;27.98;22.55;;;25.20;91.20;;;;;;5054765;28;20025;-81
2021/06/08 02:44:53;;;;;;;27.23;22.00;;;25.10;91.20;;;;;;5056482;28;20083;-81
2021/06/08 02:47:20;;;;;;;25.70;22.23;;;25.10;91.20;;;;;;5054842;28;20036;-81
2021/06/08 02:49:47;;;;;;;25.80;22.23;;;25.20;91.20;;;;;;5056491;28;20033;-82
2021/06/08 02:52:15;;;;;;;23.25;20.33;;;25.10;91.20;;;;;;5055796;28;20021;-81
2021/06/08 02:54:41;;;;;;;23.38;20.05;;;25.10;91.20;;;;;;5071870;28;20033;-82
2021/06/08 02:57:08;;;;;;;25.27;21.25;;;25.10;91.50;;;;;;5054726;28;20021;-82
2021/06/08 02:59:35;;;;;;;24.50;20.33;;;25.10;91.20;;;;;;5054722;28;20060;-81
2021/06/08 03:02:04;;;;;;;24.48;19.67;;;25.10;91.20;;;;;;5054844;28;20505;-81
2021/06/08 03:04:42;;;;;;;23.42;19.58;;;25.10;91.20;;;;;;5056163;28;20487;-81
2021/06/08 03:07:11;;;;;;;23.20;19.45;;;25.10;91.20;;;;;;5054727;28;20024;-82
2021/06/08 03:09:51;;;;;;;21.00;18.20;;;25.10;91.50;;;;;;5054797;28;20029;-81
2021/06/08 03:12:22;;;;;;;21.30;19.02;;;25.10;91.30;;;;;;5054603;28;20713;-81
2021/06/08 03:14:48;;;;;;;20.85;17.98;;;25.10;91.30;;;;;;5056019;28;20043;-82
2021/06/08 03:17:16;;;;;;;20.85;18.20;;;25.10;91.30;;;;;;5071024;28;20025;-82
2021/06/08 03:19:46;;;;;;;21.38;17.90;;;25.10;91.30;;;;;;5054255;28;20057;-82
2021/06/08 03:22:16;;;;;;;19.13;16.85;;;25.10;91.30;;;;;;5054325;28;20037;-82
2021/06/08 03:24:44;;;;;;;19.77;17.65;;;25.10;91.30;;;;;;5056487;28;20028;-81
2021/06/08 03:27:11;;;;;;;20.05;17.08;;;25.10;91.30;;;;;;5061631;28;20481;-81
2021/06/08 03:29:38;;;;;;;18.15;16.08;;;25.10;91.30;;;;;;5058977;28;20056;-81
2021/06/08 03:32:05;;;;;;;18.20;15.93;;;25.10;91.30;;;;;;5055813;28;20033;-82
2021/06/08 03:34:33;;;;;;;17.75;15.52;;;25.10;91.30;;;;;;5071212;28;20022;-82
2021/06/08 03:37:01;;;;;;;18.23;16.00;;;25.10;91.30;;;;;;5071274;28;20068;-81
2021/06/08 03:39:28;;;;;;;18.00;15.57;;;25.10;91.30;;;;;;5053768;28;20494;-82
2021/06/08 03:41:55;;;;;;;17.75;15.55;;;25.10;91.30;;;;;;5055340;28;20021;-81
2021/06/08 03:44:21;;;;;;;16.40;14.55;;;25.10;91.30;;;;;;5070388;28;20029;-82
2021/06/08 03:46:48;;;;;;;17.75;14.70;;;25.10;91.30;;;;;;5054035;28;20029;-81
2021/06/08 03:49:16;;;;;;;16.88;14.57;;;25.10;91.30;;;;;;5070146;28;20029;-82
2021/06/08 03:51:42;;;;;;;16.27;13.82;;;25.10;91.30;;;;;;5069534;28;20029;-81
2021/06/08 03:54:10;;;;;;;15.75;13.90;;;25.10;91.30;;;;;;5055068;28;20052;-81
2021/06/08 03:56:41;;;;;;;16.77;14.00;;;25.10;91.30;;;;;;5053698;28;20471;-82
2021/06/08 03:59:09;;;;;;;15.82;13.38;;;25.10;91.50;;;;;;5053747;28;20036;-81
2021/06/08 04:01:36;;;;;;;14.38;12.88;;;25.10;91.30;;;;;;5053723;28;20060;-82
2021/06/08 04:04:02;;;;;;;15.65;13.68;;;25.10;91.30;;;;;;5053759;28;20061;-81
2021/06/08 04:06:27;;;;;;;13.82;11.88;;;25.10;91.30;;;;;;5070006;28;20033;-82
2021/06/08 04:08:54;;;;;;;14.48;12.07;;;25.10;91.30;;;;;;5053552;28;20029;-81
2021/06/08 04:11:20;;;;;;;13.98;11.52;;;25.10;91.30;;;;;;5053106;28;20056;-81
2021/06/08 04:13:46;;;;;;;12.70;11.25;;;25.10;91.30;;;;;;5055015;28;20510;-81
2021/06/08 04:16:12;;;;;;;13.65;11.23;;;25.10;91.30;;;;;;5053073;28;20043;-82
2021/06/08 04:18:53;;;;;;;12.45;10.65;;;25.10;91.30;;;;;;5009961;28;20574;-81
2021/06/08 04:21:26;;;;;;;12.15;10.90;;;25.10;91.30;;;;;;5069836;28;20039;-81
2021/06/08 04:23:59;;;;;;;12.00;10.55;;;25.10;91.30;;;;;;5053524;28;20387;-81
2021/06/08 04:26:26;;;;;;;11.60;10.13;;;25.10;91.30;;;;;;5069632;28;20033;-81
2021/06/08 04:28:52;;;;;;;13.10;9.93;;;25.10;91.30;;;;;;5069764;28;20071;-81
2021/06/08 04:31:19;;;;;;;12.50;10.25;;;25.10;91.30;;;;;;5053140;28;20025;-82
2021/06/08 04:33:45;;;;;;;11.13;9.70;;;25.10;91.30;;;;;;5069693;28;20115;-82
2021/06/08 04:36:13;;;;;;;11.00;9.20;;;25.10;91.40;;;;;;5054513;28;20055;-81
2021/06/08 04:38:38;;;;;;;11.00;9.30;;;25.10;91.40;;;;;;5053128;28;20033;-81
2021/06/08 04:41:05;;;;;;;9.80;8.80;;;25.10;91.40;;;;;;5053301;28;20086;-81
2021/06/08 04:43:31;;;;;;;9.65;8.65;;;25.10;91.40;;;;;;5052839;28;20144;-81
2021/06/08 04:46:01;;;;;;;10.75;8.68;;;25.10;91.40;;;;;;5054262;28;20028;-81
2021/06/08 04:48:27;;;;;;;10.32;9.00;;;25.10;91.30;;;;;;5053466;28;20391;-81
2021/06/08 04:50:53;;;;;;;9.70;8.45;;;25.10;91.30;;;;;;5052808;28;20037;-81
2021/06/08 04:53:19;;;;;;;9.75;8.52;;;25.10;91.30;;;;;;5052509;28;20060;-82
2021/06/08 04:55:45;;;;;;;8.18;7.35;;;25.10;91.30;;;;;;5053840;28;20029;-82
2021/06/08 04:58:11;;;;;;;9.48;7.65;;;25.10;91.30;;;;;;5036172;28;20490;-81
2021/06/08 05:00:41;;;;;;;8.18;7.25;;;25.20;91.20;;;;;;5052339;28;20390;-81
2021/06/08 05:03:13;;;;;;;8.30;7.15;;;25.20;91.20;;;;;;5052613;28;20071;-81
2021/06/08 05:05:43;;;;;;;7.78;6.65;;;25.20;91.20;;;;;;5054855;28;20025;-79
2021/06/08 05:08:29;;;;;;;7.88;6.85;;;25.20;91.10;;;;;;5057489;28;20446;-81
2021/06/08 05:11:18;;;;;;;7.20;6.35;;;25.20;91.10;;;;;;5052584;28;20047;-83
2021/06/08 05:13:52;;;;;;;7.13;6.10;;;25.20;91.10;;;;;;5052890;28;20028;-82
2021/06/08 05:16:18;;;;;;;7.18;6.45;;;25.20;91.10;;;;;;5052018;28;20032;-82
2021/06/08 05:18:52;;;;;;;5.68;4.88;;;25.20;91.10;;;;;;5035540;28;20048;-81
2021/06/08 05:21:19;;;;;;;6.25;5.47;;;25.20;91.00;;;;;;5053234;28;20055;-82
2021/06/08 05:23:46;;;;;;;6.65;5.43;;;25.20;91.00;;;;;;5052014;28;20044;-81
2021/06/08 05:26:13;;;;;;;5.82;5.15;;;25.20;91.00;;;;;;5053389;28;20124;-81
2021/06/08 05:28:40;;;;;;;5.43;4.93;;;25.30;91.00;;;;;;5051730;28;20395;-81
2021/06/08 05:31:06;;;;;;;6.15;5.15;;;25.30;91.00;;;;;;5052140;28;20055;-81
2021/06/08 05:33:32;;;;;;;5.65;4.80;;;25.30;91.00;;;;;;5051568;28;20543;-81
2021/06/08 05:35:59;;;;;;;4.93;4.43;;;25.30;91.00;;;;;;5051890;28;20104;-81
2021/06/08 05:38:36;;;;;;;4.97;4.47;;;25.30;91.00;;;;;;5034912;28;20033;-81
2021/06/08 05:41:11;;;;;;;4.20;3.80;;;25.30;91.00;;;;;;5051870;28;20048;-81
2021/06/08 05:43:38;;;;;;;4.72;4.22;;;25.30;91.00;;;;;;5052654;28;20029;-81
2021/06/08 05:46:06;;;;;;;5.05;4.55;;;25.30;90.90;;;;;;5051957;28;20070;-80
2021/06/08 05:48:32;;;;;;;4.82;4.32;;;25.30;90.90;;;;;;5051804;28;20063;-82
2021/06/08 05:50:59;;;;;;;4.60;4.03;;;25.30;90.90;;;;;;5051955;28;20029;-81
2021/06/08 05:53:25;;;;;;;4.20;3.80;;;25.30;90.90;;;;;;5051504;28;20033;-82
2021/06/08 05:55:53;;;;;;;4.15;3.55;;;25.30;90.90;;;;;;5052166;28;20035;-81
2021/06/08 05:58:26;;;;;;;3.53;3.20;;;25.40;90.90;;;;;;5035227;28;20033;-81
2021/06/08 06:00:53;;;;;;;3.85;3.30;;;25.40;90.90;;;;;;5051409;28;20466;-82
2021/06/08 06:03:21;;;;;;;3.53;3.22;;;25.40;90.90;;;;;;5051502;28;20037;-82
2021/06/08 06:05:47;;;;;;;4.07;3.33;;;25.40;90.90;;;;;;5035376;28;20063;-83
2021/06/08 06:08:16;;;;;;;3.72;3.20;;;25.40;90.90;;;;;;5051654;28;20029;-83
2021/06/08 06:10:43;;;;;;;2.90;2.67;;;25.40;90.90;;;;;;5035301;28;20577;-83
2021/06/08 06:13:17;;;;;;;3.35;3.00;;;25.40;90.90;;;;;;5035124;28;20041;-83
2021/06/08 06:15:46;;;;;;;;;;;25.40;90.90;;;;;;5050595;28;20082;-83
2021/06/08 06:18:14;;;;;;;3.03;2.70;;;25.40;90.90;;;;;;5054033;28;19909;-83
2021/06/08 06:20:41;;;;;;;2.88;2.60;;;25.40;90.90;;;;;;5054559;28;20029;-83
2021/06/08 06:23:06;;;;;;;2.85;2.58;;;25.40;90.90;;;;;;5072809;28;20037;-83
2021/06/08 06:25:33;;;;;;;2.42;2.15;;;25.40;90.90;;;;;;5054459;28;20029;-83
2021/06/08 06:27:58;;;;;;;2.50;2.28;;;25.40;90.90;;;;;;5021842;28;20032;-82
2021/06/08 06:30:24;;;;;;;2.20;2.00;;;25.40;90.90;;;;;;5054480;28;20032;-85
2021/06/08 06:32:51;;;;;;;2.22;2.03;;;25.50;91.00;;;;;;5073402;28;20036;-83
2021/06/08 06:35:17;;;;;;;2.45;2.22;;;25.50;91.00;;;;;;5021965;28;20128;-82
2021/06/08 06:37:45;;;;;;;2.33;2.00;;;25.50;91.00;;;;;;5072483;28;20067;-82
2021/06/08 06:40:16;;;;;;;1.95;1.83;;;25.50;91.00;;;;;;5072844;28;20059;-82
2021/06/08 06:42:46;;;;;;;1.88;1.75;;;25.50;91.10;;;;;;5054215;28;20028;-83
2021/06/08 06:45:18;;;;;;;1.90;1.70;;;25.50;91.10;;;;;;5069312;28;20031;-82
2021/06/08 06:47:44;;;;;;;2.15;1.95;;;25.50;91.10;;;;;;5105210;28;20036;-82
2021/06/08 06:50:11;;;;;;;1.42;1.30;;;25.50;91.10;;;;;;5095832;28;20038;-83
2021/06/08 06:52:43;;;;;;;1.70;1.60;;;25.50;91.10;;;;;;5074949;28;20032;-83
2021/06/08 06:55:10;;;;;;;1.42;1.33;;;25.50;91.10;;;;;;5074734;28;20024;-82
2021/06/08 06:57:40;;;;;;;1.60;1.50;;;25.50;91.10;;;;;;5057978;28;20061;-84
2021/06/08 07:00:06;;;;;;;1.60;1.50;;;25.50;91.10;;;;;;5074613;28;20039;-83
2021/06/08 07:02:33;;;;;;;1.30;1.20;;;25.60;91.10;;;;;;5073563;28;20036;-84
2021/06/08 07:05:00;;;;;;;1.15;1.05;;;25.60;91.10;;;;;;5073566;28;20029;-83
2021/06/08 07:07:26;;;;;;;1.40;1.30;;;25.60;91.10;;;;;;5093125;28;20024;-83
2021/06/08 07:09:52;;;;;;;1.52;1.38;;;25.60;91.10;;;;;;5074884;28;20550;-83
2021/06/08 07:12:20;;;;;;;1.38;1.27;;;25.60;91.10;;;;;;5058064;28;20077;-82
2021/06/08 07:14:47;;;;;;;1.70;1.60;;;25.60;91.00;;;;;;5092448;28;20028;-82
2021/06/08 07:17:13;;;;;;;1.95;1.67;;;25.60;91.00;;;;;;5074993;28;20032;-82
2021/06/08 07:19:40;;;;;;;1.90;1.70;;;25.60;91.00;;;;;;5091931;28;20047;-82
2021/06/08 07:22:07;;;;;;;1.60;1.50;;;25.60;91.00;;;;;;5074602;28;20035;-82
2021/06/08 07:24:34;;;;;;;1.95;1.75;;;25.60;91.10;;;;;;5074352;28;20117;-82
2021/06/08 07:27:00;;;;;;;2.22;2.03;;;25.60;91.10;;;;;;5074969;28;20027;-82
2021/06/08 07:29:26;;;;;;;2.50;1.85;;;25.60;91.10;;;;;;5061683;28;20028;-81
2021/06/08 07:31:52;;;;;;;1.67;1.50;;;25.60;91.20;;;;;;5061021;28;20146;-82
2021/06/08 07:34:29;;;;;;;2.08;1.90;;;25.60;91.20;;;;;;5077996;28;20077;-82
2021/06/08 07:36:56;;;;;;;2.47;2.05;;;25.60;91.30;;;;;;5077974;28;20055;-83
2021/06/08 07:39:29;;;;;;;2.80;2.20;;;25.60;91.50;;;;;;5077851;28;20040;-83
2021/06/08 07:42:08;;;;;;;2.37;2.07;;;25.70;91.60;;;;;;5077471;28;20020;-84
2021/06/08 07:44:41;;;;;;;3.70;2.40;;;25.70;91.80;;;;;;5077009;28;20278;-83
2021/06/08 07:47:07;;;;;;;2.33;2.03;;;25.70;91.90;;;;;;5095698;28;20024;-83
2021/06/08 07:49:35;;;;;;;2.63;2.10;;;25.70;92.00;;;;;;5077125;28;20036;-83
2021/06/08 07:52:05;;;;;;;2.00;1.80;;;25.70;92.00;;;;;;5077635;28;20123;-84
2021/06/08 07:54:32;;;;;;;3.10;2.50;;;25.70;92.00;;;;;;5060764;28;20038;-84
2021/06/08 07:56:58;;;;;;;2.97;2.20;;;25.70;91.90;;;;;;5077294;28;20559;-83
2021/06/08 07:59:25;;;;;;;2.10;1.85;;;25.70;91.80;;;;;;5077239;28;20119;-83
2021/06/08 08:01:52;;;;;;;1.98;1.75;;;25.70;91.70;;;;;;5060426;28;20425;-83
2021/06/08 08:04:19;;;;;;;2.20;1.90;;;25.70;91.60;;;;;;5060948;28;20062;-83
2021/06/08 08:06:51;;;;;;;2.25;1.98;;;25.70;91.50;;;;;;5077227;28;20028;-83
2021/06/08 08:09:20;;;;;;;1.80;1.58;;;25.70;91.40;;;;;;5088855;28;20103;-83
2021/06/08 08:11:47;;;;;;;1.73;1.50;;;25.70;91.30;;;;;;5059999;28;20036;-85
2021/06/08 08:14:17;;;;;;;1.48;1.30;;;25.70;91.30;;;;;;5095047;28;20024;-82
2021/06/08 08:16:47;;;;;;;1.83;1.42;;;25.70;91.30;;;;;;5094035;28;20039;-82
2021/06/08 08:19:16;;;;;;;1.30;1.20;;;25.70;91.20;;;;;;5071033;28;20049;-83
2021/06/08 08:21:43;;;;;;;2.15;1.52;;;25.70;91.10;;;;;;5054462;28;20063;-84
2021/06/08 08:24:08;;;;;;;1.45;1.35;;;25.70;91.10;;;;;;5072172;28;20024;-82
2021/06/08 08:26:35;;;;;;;1.63;1.30;;;25.70;91.00;;;;;;5073843;28;20535;-83
2021/06/08 08:29:00;;;;;;;1.20;1.10;;;25.70;91.00;;;;;;5056558;28;20074;-82
2021/06/08 08:31:28;;;;;;;1.42;1.30;;;25.70;91.00;;;;;;5056477;28;20028;-82
2021/06/08 08:33:55;;;;;;;1.20;1.10;;;25.70;91.00;;;;;;5073007;28;20111;-82
2021/06/08 08:36:21;;;;;;;1.30;1.20;;;25.70;91.00;;;;;;5074813;28;20033;-82
2021/06/08 08:38:47;;;;;;;1.17;1.08;;;25.70;91.00;;;;;;5073686;28;20033;-82
2021/06/08 08:41:13;;;;;;;1.33;1.23;;;25.70;90.90;;;;;;5056853;28;20386;-83
2021/06/08 08:43:43;;;;;;;1.23;1.00;;;25.70;90.90;;;;;;5073744;28;20425;-82
2021/06/08 08:46:10;;;;;;;0.90;0.90;;;25.70;90.90;;;;;;5067407;28;20074;-82
2021/06/08 08:48:36;;;;;;;1.10;0.90;;;25.70;90.80;;;;;;5056481;28;20054;-82
2021/06/08 08:51:02;;;;;;;1.23;1.13;;;25.70;90.80;;;;;;5073028;28;20467;-82
2021/06/08 08:53:30;;;;;;;0.75;0.73;;;25.70;90.80;;;;;;5072858;28;20039;-82
2021/06/08 08:55:56;;;;;;;1.08;1.00;;;25.70;90.80;;;;;;5072699;28;20033;-82
2021/06/08 08:58:25;;;;;;;0.93;0.82;;;25.70;90.70;;;;;;5056110;28;20090;-82
2021/06/08 09:00:52;;;;;;;0.80;0.80;;;25.70;90.70;;;;;;5073663;28;20033;-82
2021/06/08 09:03:18;;;;;;;1.10;1.00;;;25.70;90.60;;;;;;5072295;28;20029;-82
2021/06/08 09:05:44;;;;;;;0.90;0.90;;;25.70;90.60;;;;;;5073441;28;20062;-83
2021/06/08 09:08:10;;;;;;;0.80;0.80;;;25.70;90.60;;;;;;5056047;28;20067;-83
2021/06/08 09:10:38;;;;;;;1.02;0.93;;;25.70;90.50;;;;;;5071972;28;20527;-83
2021/06/08 09:13:04;;;;;;;0.75;0.75;;;25.80;90.50;;;;;;5073423;28;20078;-84
2021/06/08 09:15:30;;;;;;;0.75;0.60;;;25.80;90.50;;;;;;5072676;28;20083;-83
2021/06/08 09:17:58;;;;;;;0.80;0.80;;;25.80;90.50;;;;;;5073645;28;20108;-83
2021/06/08 09:20:24;;;;;;;0.80;0.80;;;25.80;90.40;;;;;;5072464;28;20102;-83
2021/06/08 09:22:57;;;;;;;1.02;0.70;;;25.80;90.40;;;;;;5072018;28;20406;-83
2021/06/08 09:25:35;;;;;;;0.60;0.60;;;25.80;90.40;;;;;;5072241;28;20028;-83
2021/06/08 09:28:22;;;;;;;0.80;0.80;;;25.80;90.40;;;;;;5072871;28;20036;-83
2021/06/08 09:30:54;;;;;;;1.00;0.90;;;25.80;90.30;;;;;;5073012;28;20029;-83
2021/06/08 09:33:22;;;;;;;0.70;0.60;;;25.80;90.30;;;;;;5073267;28;20099;-83
2021/06/08 09:35:58;;;;;;;0.60;0.60;;;25.80;90.30;;;;;;5073300;28;20040;-84
2021/06/08 09:38:44;;;;;;;0.70;0.60;;;25.90;90.30;;;;;;5073366;28;20070;-83
2021/06/08 09:41:12;;;;;;;0.75;0.68;;;25.90;90.50;;;;;;5072043;28;20056;-83
2021/06/08 09:44:04;;;;;;;0.70;0.70;;;25.90;90.30;;;;;;5072877;28;20031;-82
2021/06/08 09:46:55;;;;;;;0.60;0.60;;;25.90;90.20;;;;;;5072189;28;20028;-83
2021/06/08 09:49:26;;;;;;;0.60;0.55;;;25.90;90.20;;;;;;5072649;28;20032;-83
2021/06/08 09:51:57;;;;;;;0.70;0.68;;;25.90;90.20;;;;;;5071584;28;20450;-83
2021/06/08 09:54:32;;;;;;;0.60;0.60;;;25.90;90.20;;;;;;5073160;28;20032;-83
2021/06/08 09:57:26;;;;;;;0.85;0.65;;;25.90;90.20;;;;;;5071536;28;20052;-83
2021/06/08 10:00:06;;;;;;;0.50;0.50;;;25.90;90.10;;;;;;5071541;28;20127;-83
2021/06/08 10:02:50;;;;;;;1.08;0.90;;;26.00;90.40;;;;;;5055989;28;20393;-83
2021/06/08 10:05:29;;;;;;;0.50;0.50;;;26.00;90.20;;;;;;5072837;28;20083;-83
2021/06/08 10:08:00;;;;;;;0.70;0.70;;;26.00;90.10;;;;;;5072452;28;20539;-83
2021/06/08 10:10:35;;;;;;;1.15;0.80;;;26.00;90.10;;;;;;5073120;28;20389;-83
2021/06/08 10:13:04;;;;;;;0.68;0.60;;;26.00;90.10;;;;;;5071360;28;20025;-83
2021/06/08 10:15:35;;;;;;;0.50;0.50;;;26.00;90.10;;;;;;5072557;28;20127;-83
2021/06/08 10:18:05;;;;;;;0.60;0.60;;;26.00;90.10;;;;;;5072685;28;20059;-83
2021/06/08 10:20:34;;;;;;;0.50;0.50;;;26.00;90.00;;;;;;5090988;28;20047;-83
2021/06/08 10:23:16;;;;;;;0.60;0.50;;;26.00;90.00;;;;;;5092604;28;20555;-83
2021/06/08 10:25:42;;;;;;;0.75;0.65;;;26.00;90.00;;;;;;5092837;28;20051;-83
2021/06/08 10:28:11;;;;;;;0.50;0.50;;;26.00;90.00;;;;;;5092360;28;20086;-83
2021/06/08 10:30:39;;;;;;;0.50;0.50;;;26.00;90.00;;;;;;5075191;28;20149;-82
2021/06/08 10:33:04;;;;;;;0.80;0.70;;;26.00;90.00;;;;;;5075260;28;20111;-82
2021/06/08 10:35:31;;;;;;;0.50;0.50;;;26.00;90.00;;;;;;5058026;28;20056;-83
2021/06/08 10:37:56;;;;;;;0.40;0.40;;;26.00;89.90;;;;;;5057698;28;20056;-82
2021/06/08 10:40:22;;;;;;;0.40;0.40;;;26.00;90.00;;;;;;5074771;28;20073;-82
2021/06/08 10:42:48;;;;;;;0.40;0.40;;;26.00;90.00;;;;;;5074696;28;20032;-84
2021/06/08 10:45:14;;;;;;;0.50;0.50;;;26.00;90.00;;;;;;5074830;28;20028;-82
2021/06/08 10:47:44;;;;;;;0.50;0.50;;;26.00;90.00;;;;;;5074510;28;20030;-82
2021/06/08 10:50:31;;;;;;;0.30;0.30;;;26.00;89.90;;;;;;5058120;28;20036;-82
2021/06/08 10:52:58;;;;;;;0.40;0.40;;;26.00;89.70;;;;;;5074377;28;20377;-83
2021/06/08 10:55:37;;;;;;;0.45;0.45;;;26.00;89.80;;;;;;5074854;28;20024;-84
2021/06/08 10:58:04;;;;;;;0.50;0.50;;;26.00;89.70;;;;;;5074555;28;20055;-83
2021/06/08 11:00:34;;;;;;;0.40;0.40;;;26.00;89.60;;;;;;5074214;28;20032;-83
2021/06/08 11:03:01;;;;;;;0.40;0.40;;;26.00;89.40;;;;;;5078599;28;20092;-83
2021/06/08 11:05:50;;;;;;;0.40;0.40;;;26.00;89.40;;;;;;5080865;28;20028;-83
2021/06/08 11:08:17;;;;;;;0.40;0.40;;;26.00;89.40;;;;;;5097095;28;20077;-83
2021/06/08 11:10:58;;;;;;;0.35;0.35;;;26.00;89.40;;;;;;5061568;28;20040;-82
2021/06/08 11:13:23;;;;;;;0.52;0.50;;;26.00;89.40;;;;;;5078346;28;20028;-83
2021/06/08 11:15:50;;;;;;;0.40;0.40;;;26.00;89.40;;;;;;5078189;28;20093;-82
2021/06/08 11:18:27;;;;;;;0.50;0.50;;;26.00;89.40;;;;;;5077841;28;20058;-82
2021/06/08 11:21:05;;;;;;;0.30;0.30;;;26.00;89.30;;;;;;5077600;28;20035;-84
2021/06/08 11:23:31;;;;;;;0.40;0.40;;;26.00;89.10;;;;;;5077965;28;20046;-84
2021/06/08 11:25:56;;;;;;;0.40;0.40;;;26.00;89.00;;;;;;5077731;28;20450;-84
2021/06/08 11:28:22;;;;;;;0.40;0.40;;;26.00;88.90;;;;;;5095996;28;20028;-83
2021/06/08 11:30:56;;;;;;;0.32;0.32;;;26.00;88.90;;;;;;5095867;28;20110;-83
2021/06/08 11:33:32;;;;;;;0.50;0.50;;;26.00;89.00;;;;;;5095792;28;20020;-83
2021/06/08 11:35:58;;;;;;;0.50;0.50;;;26.00;89.10;;;;;;5095454;28;20107;-84
2021/06/08 11:38:24;;;;;;;0.30;0.30;;;26.10;89.10;;;;;;5077474;28;20028;-83
2021/06/08 11:40:51;;;;;;;0.50;0.50;;;26.00;88.90;;;;;;5077532;28;20081;-83
2021/06/08 11:43:17;;;;;;;0.40;0.40;;;26.10;88.90;;;;;;5076725;28;20023;-84
2021/06/08 11:45:44;;;;;;;0.40;0.40;;;26.10;88.90;;;;;;5095343;28;20027;-84
2021/06/08 11:48:36;;;;;;;0.40;0.40;;;26.10;88.70;;;;;;5095266;28;20028;-84
2021/06/08 11:51:16;;;;;;;0.40;0.40;;;26.10;88.50;;;;;;5076746;28;20381;-83
2021/06/08 11:54:03;;;;;;;0.50;0.50;;;26.10;88.50;;;;;;5095667;28;20488;-84
2021/06/08 11:56:51;;;;;;;0.50;0.50;;;26.10;88.30;;;;;;5077243;28;20030;-83
2021/06/08 11:59:25;;;;;;;0.50;0.50;;;26.20;88.40;;;;;;5095021;28;20063;-82
2021/06/08 12:01:58;;;;;;;0.50;0.50;;;26.10;88.50;;;;;;5095508;28;20078;-82
2021/06/08 12:04:26;;;;;;;0.40;0.40;;;26.20;88.60;;;;;;5095204;28;20020;-82
2021/06/08 12:06:55;;;;;;;0.47;0.47;;;26.20;88.70;;;;;;5077666;28;20028;-82
2021/06/08 12:09:25;;;;;;;0.55;0.50;;;26.20;88.80;;;;;;5076605;28;20036;-83
2021/06/08 12:11:53;;;;;;;0.60;0.60;;;26.20;88.80;;;;;;5076924;28;20020;-82
2021/06/08 12:14:20;;;;;;;0.50;0.50;;;26.20;88.80;;;;;;5094148;28;20031;-83
2021/06/08 12:17:00;;;;;;;0.43;0.43;;;26.20;88.70;;;;;;5060276;28;20053;-83
2021/06/08 12:19:29;;;;;;;0.52;0.50;;;26.20;88.70;;;;;;5076561;28;20048;-83
2021/06/08 12:21:57;;;;;;;0.60;0.60;;;26.20;88.50;;;;;;5095104;28;20032;-84
2021/06/08 12:24:23;;;;;;;0.52;0.52;;;26.20;88.40;;;;;;5076508;28;20063;-83
2021/06/08 12:27:04;;;;;;;0.40;0.40;;;26.20;88.50;;;;;;5060077;28;20051;-82
2021/06/08 12:29:29;;;;;;;0.50;0.50;;;26.20;88.60;;;;;;5077029;28;20093;-83
2021/06/08 12:32:05;;;;;;;0.50;0.50;;;26.20;88.60;;;;;;5076453;28;20470;-83
2021/06/08 12:34:35;;;;;;;0.60;0.60;;;26.20;88.60;;;;;;5077346;28;20027;-83
2021/06/08 12:37:02;;;;;;;0.50;0.50;;;26.30;88.60;;;;;;5076325;28;20461;-84
2021/06/08 12:39:30;;;;;;;0.50;0.50;;;26.30;88.60;;;;;;5094409;28;20043;-83
2021/06/08 12:42:15;;;;;;;0.50;0.50;;;26.30;88.70;;;;;;5059940;28;20558;-83
2021/06/08 12:44:45;;;;;;;0.35;0.35;;;26.30;88.80;;;;;;5076350;28;20047;-82
2021/06/08 12:47:11;;;;;;;0.47;0.47;;;26.30;88.90;;;;;;5075761;28;20470;-82
2021/06/08 12:49:39;;;;;;;0.47;0.47;;;26.30;88.70;;;;;;5059695;28;20032;-82
2021/06/08 12:52:07;;;;;;;0.70;0.60;;;26.30;88.70;;;;;;5093838;28;20474;-83